Time;durP1;ratioP1;P1;durP2;ratioP2;P2;SDS_P1;SDS_P2;PMS_P1;PMS_P2;Temp;Humidity;BMP_temperature;BMP_pressure;BME280_temperature;BME280_humidity;BME280_pressure;Samples;Min_cycle;Max_cycle;Signal;HPM_P1;HPM_P2
2021/12/10 00:00:00;;;;;;;7.38;6.68;;;6.00;99.90;;;;;;2071901;28;20034;-70
2021/12/10 00:01:10;;;;;;;7.72;6.88;;;6.00;99.90;;;;;;2071777;28;20038;-70
2021/12/10 00:02:12;;;;;;;;;;;6.00;99.90;;;;;;2072029;28;20084;-70
2021/12/10 00:03:21;;;;;;;9.02;6.10;;;5.90;99.90;;;;;;2071544;28;20284;-70
2021/12/10 00:04:29;;;;;;;8.57;6.85;;;6.00;99.90;;;;;;2071244;28;20049;-70
2021/12/10 00:05:35;;;;;;;7.85;6.00;;;6.00;99.90;;;;;;2071883;28;20057;-70
2021/12/10 00:06:43;;;;;;;10.30;6.63;;;6.00;99.90;;;;;;2063064;28;20390;-71
2021/12/10 00:07:45;;;;;;;10.43;6.90;;;6.00;99.90;;;;;;2067814;28;20026;-70
2021/12/10 00:08:55;;;;;;;7.75;6.47;;;6.00;99.90;;;;;;2070603;28;20030;-70
2021/12/10 00:10:03;;;;;;;10.23;6.88;;;6.00;99.90;;;;;;2071692;28;20550;-70
2021/12/10 00:11:12;;;;;;;9.10;6.53;;;5.90;99.90;;;;;;2068209;28;20030;-70
2021/12/10 00:12:23;;;;;;;7.47;6.53;;;5.90;99.90;;;;;;2071429;28;20483;-70
2021/12/10 00:13:24;;;;;;;9.73;6.68;;;5.90;99.90;;;;;;2071332;28;20018;-70
2021/12/10 00:14:30;;;;;;;8.35;6.70;;;5.90;99.90;;;;;;2078971;28;20017;-70
2021/12/10 00:15:32;;;;;;;7.95;6.35;;;5.90;99.90;;;;;;2078566;28;20320;-70
2021/12/10 00:16:35;;;;;;;8.23;6.18;;;5.90;99.90;;;;;;2071262;28;20108;-70
2021/12/10 00:17:36;;;;;;;7.38;6.68;;;6.00;99.90;;;;;;2070565;28;20113;-70
2021/12/10 00:18:38;;;;;;;7.88;7.13;;;6.00;99.90;;;;;;2070868;28;20014;-70
2021/12/10 00:19:47;;;;;;;8.27;6.25;;;5.90;99.90;;;;;;2071586;28;20029;-70
2021/12/10 00:20:49;;;;;;;8.15;6.82;;;6.00;99.90;;;;;;2071374;28;20477;-70
2021/12/10 00:21:51;;;;;;;7.60;6.40;;;5.90;99.90;;;;;;2071847;28;20048;-70
2021/12/10 00:22:58;;;;;;;7.47;6.40;;;5.90;99.90;;;;;;2071522;28;20029;-70
2021/12/10 00:23:59;;;;;;;7.07;6.38;;;6.00;99.90;;;;;;2071548;28;20109;-72
2021/12/10 00:25:00;;;;;;;8.27;6.38;;;5.90;99.90;;;;;;2071741;28;20030;-72
2021/12/10 00:26:04;;;;;;;8.23;6.25;;;6.00;99.90;;;;;;2071527;28;20382;-72
2021/12/10 00:27:07;;;;;;;6.60;6.00;;;5.90;99.90;;;;;;2074020;28;20022;-72
2021/12/10 00:28:19;;;;;;;7.13;6.40;;;5.90;99.90;;;;;;2071176;28;20509;-71
2021/12/10 00:29:20;;;;;;;7.38;6.68;;;5.90;99.90;;;;;;2063308;28;20026;-72
2021/12/10 00:30:26;;;;;;;8.45;6.72;;;5.90;99.90;;;;;;2066937;28;20476;-72
2021/12/10 00:32:43;;;;;;;7.03;6.32;;;5.90;99.90;;;;;;2071732;28;20030;-72
2021/12/10 00:33:53;;;;;;;7.78;6.90;;;5.90;99.90;;;;;;2070516;28;20029;-72
2021/12/10 00:34:54;;;;;;;9.07;7.05;;;5.90;99.90;;;;;;2070961;28;20084;-72
2021/12/10 00:35:55;;;;;;;8.68;7.10;;;5.90;99.90;;;;;;2070665;28;20030;-72
2021/12/10 00:36:59;;;;;;;10.68;6.82;;;5.90;99.90;;;;;;2070431;28;20104;-72
2021/12/10 00:38:00;;;;;;;7.60;6.85;;;5.80;99.90;;;;;;2071429;28;20032;-72
2021/12/10 00:39:03;;;;;;;7.35;6.65;;;5.80;99.90;;;;;;2071626;28;20040;-72
2021/12/10 00:40:07;;;;;;;9.20;6.70;;;5.80;99.90;;;;;;2071234;28;20029;-72
2021/12/10 00:41:09;;;;;;;9.23;6.82;;;5.80;99.90;;;;;;2071254;28;20030;-72
2021/12/10 00:42:14;;;;;;;7.70;6.90;;;5.80;99.90;;;;;;2071385;28;20037;-72
2021/12/10 00:43:15;;;;;;;8.10;7.30;;;5.80;99.90;;;;;;2071766;28;20112;-72
2021/12/10 00:44:15;;;;;;;7.53;6.75;;;5.70;99.90;;;;;;2071548;28;20064;-72
2021/12/10 00:45:18;;;;;;;8.15;6.93;;;5.80;99.90;;;;;;2071626;28;20030;-72
2021/12/10 00:46:18;;;;;;;8.27;6.53;;;5.70;99.90;;;;;;2071136;28;20351;-72
2021/12/10 00:47:19;;;;;;;6.97;6.22;;;5.70;99.90;;;;;;2070261;28;20092;-72
2021/12/10 00:48:20;;;;;;;9.50;6.90;;;5.70;99.90;;;;;;2070440;28;20121;-72
2021/12/10 00:49:21;;;;;;;8.23;6.78;;;5.70;99.90;;;;;;2071387;28;20026;-72
2021/12/10 00:50:28;;;;;;;10.85;6.80;;;5.70;99.90;;;;;;2071256;28;20485;-72
2021/12/10 00:51:29;;;;;;;9.48;6.97;;;5.60;99.90;;;;;;2071600;28;20018;-72
2021/12/10 00:52:30;;;;;;;7.38;6.68;;;5.60;99.90;;;;;;2071712;28;20089;-72
2021/12/10 00:53:32;;;;;;;9.93;7.53;;;5.60;99.90;;;;;;2071541;28;20029;-72
2021/12/10 00:54:33;;;;;;;8.05;6.60;;;5.60;99.90;;;;;;2071076;28;20029;-72
2021/12/10 00:55:33;;;;;;;8.98;6.38;;;5.60;99.90;;;;;;2070488;28;20052;-72
2021/12/10 00:56:34;;;;;;;8.77;7.22;;;5.60;99.90;;;;;;2070114;28;20029;-72
2021/12/10 00:57:35;;;;;;;8.85;7.30;;;5.50;99.90;;;;;;2071532;28;20030;-72
2021/12/10 00:58:37;;;;;;;7.88;7.07;;;5.50;99.90;;;;;;2071093;28;20050;-72
2021/12/10 00:59:40;;;;;;;7.72;6.85;;;5.60;99.90;;;;;;2071483;28;20053;-72
2021/12/10 01:00:45;;;;;;;10.25;7.55;;;5.60;99.90;;;;;;2070661;28;20033;-70
2021/12/10 01:01:47;;;;;;;8.65;7.72;;;5.50;99.90;;;;;;2063096;28;20034;-72
2021/12/10 01:02:49;;;;;;;9.35;7.60;;;5.50;99.90;;;;;;2067173;28;20427;-72
2021/12/10 01:03:56;;;;;;;8.13;7.35;;;5.50;99.90;;;;;;2071289;28;20550;-72
2021/12/10 01:04:59;;;;;;;9.18;7.68;;;5.60;99.90;;;;;;2069101;28;20057;-72
2021/12/10 01:06:04;;;;;;;8.25;7.40;;;5.50;99.90;;;;;;2071076;28;20022;-72
2021/12/10 01:07:09;;;;;;;8.85;7.40;;;5.50;99.90;;;;;;2062637;28;20077;-72
2021/12/10 01:08:10;;;;;;;8.18;6.53;;;5.50;99.90;;;;;;2071272;28;20026;-72
2021/12/10 01:09:19;;;;;;;10.00;7.72;;;5.50;99.90;;;;;;2071160;28;20030;-70
2021/12/10 01:10:31;;;;;;;10.07;7.15;;;5.50;99.90;;;;;;2071334;28;20111;-72
2021/12/10 01:11:35;;;;;;;8.55;7.15;;;5.50;99.90;;;;;;2067479;28;20018;-70
2021/12/10 01:12:42;;;;;;;9.07;8.18;;;5.50;99.90;;;;;;2071570;28;20137;-72
2021/12/10 01:13:46;;;;;;;9.88;7.05;;;5.50;99.90;;;;;;2071266;28;20029;-72
2021/12/10 01:16:07;;;;;;;9.90;7.43;;;5.50;99.90;;;;;;2070930;28;20029;-72
2021/12/10 01:26:06;;;;;;;8.43;6.88;;;5.50;99.90;;;;;;2072883;28;20441;-72
2021/12/10 01:27:13;;;;;;;7.95;6.75;;;5.50;99.90;;;;;;2074093;28;20046;-72
2021/12/10 01:28:14;;;;;;;8.32;7.10;;;5.50;99.90;;;;;;2074584;28;20025;-72
2021/12/10 01:29:19;;;;;;;6.70;6.10;;;5.50;99.90;;;;;;2080884;28;20145;-72
2021/12/10 01:30:30;;;;;;;8.20;6.90;;;5.50;99.90;;;;;;2079783;28;20025;-72
2021/12/10 01:31:31;;;;;;;8.88;7.40;;;5.50;99.90;;;;;;2072958;28;20052;-70
2021/12/10 01:32:36;;;;;;;7.35;6.63;;;5.60;99.90;;;;;;2072750;28;20025;-70
2021/12/10 01:33:38;;;;;;;8.75;6.93;;;5.60;99.90;;;;;;2072916;28;20021;-70
2021/12/10 01:34:38;;;;;;;7.65;6.85;;;5.60;99.90;;;;;;2072557;28;20060;-70
2021/12/10 01:35:46;;;;;;;8.38;6.40;;;5.60;99.90;;;;;;2072714;28;20053;-72
2021/12/10 01:36:46;;;;;;;7.32;6.28;;;5.60;99.90;;;;;;2074014;28;20053;-72
2021/12/10 01:37:48;;;;;;;9.57;7.38;;;5.60;99.90;;;;;;2081193;28;20030;-72
2021/12/10 01:38:51;;;;;;;8.95;6.53;;;5.60;99.90;;;;;;2074063;28;20076;-71
2021/12/10 01:39:55;;;;;;;7.05;6.10;;;5.70;99.90;;;;;;2072059;28;20029;-71
2021/12/10 01:40:58;;;;;;;10.75;6.75;;;5.70;99.90;;;;;;2071940;28;20025;-72
2021/12/10 01:42:13;;;;;;;7.82;6.32;;;5.60;99.90;;;;;;2072864;28;20022;-72
2021/12/10 01:43:23;;;;;;;7.28;6.15;;;5.60;99.90;;;;;;2072893;28;20133;-72
2021/12/10 01:44:28;;;;;;;9.05;6.35;;;5.70;99.90;;;;;;2080350;28;20037;-71
2021/12/10 01:45:35;;;;;;;8.30;6.32;;;5.60;99.90;;;;;;2080053;28;20024;-72
2021/12/10 01:46:38;;;;;;;7.75;6.35;;;5.70;99.90;;;;;;2080193;28;20064;-72
2021/12/10 01:47:39;;;;;;;8.98;6.70;;;5.60;99.90;;;;;;2079959;28;20028;-72
2021/12/10 01:48:45;;;;;;;8.57;6.22;;;5.70;99.90;;;;;;2072762;28;20025;-72
2021/12/10 01:49:45;;;;;;;10.95;6.65;;;5.70;99.90;;;;;;2072299;28;20445;-71
2021/12/10 01:50:47;;;;;;;8.35;5.97;;;5.70;99.90;;;;;;2072032;28;20025;-71
2021/12/10 01:51:48;;;;;;;8.20;5.85;;;5.60;99.90;;;;;;2072746;28;20022;-71
2021/12/10 01:52:53;;;;;;;7.75;6.35;;;5.70;99.90;;;;;;2072494;28;20040;-71
2021/12/10 01:53:56;;;;;;;9.23;5.78;;;5.70;99.90;;;;;;2074429;28;20398;-72
2021/12/10 01:55:00;;;;;;;6.82;5.80;;;5.70;99.90;;;;;;2074769;28;20037;-72
2021/12/10 01:56:06;;;;;;;6.60;5.93;;;5.70;99.90;;;;;;2071736;28;20088;-72
2021/12/10 01:57:08;;;;;;;8.52;6.40;;;5.70;99.90;;;;;;2071417;28;20022;-72
2021/12/10 01:58:15;;;;;;;9.38;6.47;;;5.70;99.90;;;;;;2072662;28;20061;-71
2021/12/10 01:59:17;;;;;;;7.72;5.60;;;5.70;99.90;;;;;;2072623;28;20025;-71
2021/12/10 02:00:22;;;;;;;7.90;6.47;;;5.70;99.90;;;;;;2072549;28;20108;-71
2021/12/10 02:01:32;;;;;;;9.30;6.20;;;5.70;99.90;;;;;;2072422;28;20113;-72
2021/12/10 02:02:35;;;;;;;8.77;6.45;;;5.70;99.90;;;;;;2071980;28;20461;-72
2021/12/10 02:03:38;;;;;;;7.72;6.43;;;5.70;99.90;;;;;;2071556;28;20026;-72
2021/12/10 02:04:41;;;;;;;11.13;5.53;;;5.70;99.90;;;;;;2071785;28;20379;-72
2021/12/10 02:05:41;;;;;;;9.68;6.10;;;5.70;99.90;;;;;;2072342;28;20021;-72
2021/12/10 02:06:42;;;;;;;9.13;6.72;;;5.70;99.90;;;;;;2069232;28;20034;-72
2021/12/10 02:07:45;;;;;;;10.43;6.90;;;5.70;99.90;;;;;;2071830;28;20124;-72
2021/12/10 02:08:46;;;;;;;8.85;6.20;;;5.80;99.90;;;;;;2079440;28;20036;-72
2021/12/10 02:09:47;;;;;;;10.70;6.43;;;5.80;99.90;;;;;;2080671;28;21036;-72
2021/12/10 02:10:48;;;;;;;8.48;6.45;;;5.80;99.90;;;;;;2079379;28;20477;-72
2021/12/10 02:11:49;;;;;;;7.10;5.85;;;5.80;99.90;;;;;;2075416;28;20048;-72
2021/12/10 02:12:50;;;;;;;7.65;5.97;;;5.80;99.90;;;;;;2072431;28;20042;-72
2021/12/10 02:13:51;;;;;;;9.38;6.47;;;5.80;99.90;;;;;;2072043;28;20477;-72
2021/12/10 02:15:01;;;;;;;8.00;5.82;;;5.80;99.90;;;;;;2071917;28;20455;-72
2021/12/10 02:16:02;;;;;;;7.75;6.03;;;5.80;99.90;;;;;;2074907;28;20028;-72
2021/12/10 02:17:04;;;;;;;9.20;6.30;;;5.70;99.90;;;;;;2078669;28;20569;-72
2021/12/10 02:18:07;;;;;;;7.70;5.65;;;5.70;99.90;;;;;;2072336;28;20544;-72
2021/12/10 02:19:09;;;;;;;7.80;5.63;;;5.80;99.90;;;;;;2072606;28;20097;-72
2021/12/10 02:20:18;;;;;;;8.50;5.72;;;5.70;99.90;;;;;;2072483;28;20036;-72
2021/12/10 02:21:21;;;;;;;9.18;5.97;;;5.80;99.90;;;;;;2072631;28;20367;-72
2021/12/10 02:22:23;;;;;;;7.63;6.40;;;5.70;99.90;;;;;;2072380;28;20040;-72
2021/12/10 02:23:23;;;;;;;8.25;6.03;;;5.70;99.90;;;;;;2072601;28;20022;-72
2021/12/10 02:24:24;;;;;;;7.50;6.63;;;5.70;99.90;;;;;;2073305;28;20037;-71
2021/12/10 02:25:27;;;;;;;6.75;5.90;;;5.70;99.90;;;;;;2076684;28;20041;-72
2021/12/10 02:26:31;;;;;;;7.57;6.38;;;5.70;99.90;;;;;;2073629;28;20079;-72
2021/12/10 02:27:32;;;;;;;7.65;5.72;;;5.70;99.90;;;;;;2070786;28;20022;-72
2021/12/10 02:28:33;;;;;;;8.32;5.15;;;5.70;99.90;;;;;;2075912;28;20035;-72
2021/12/10 02:29:38;;;;;;;9.90;5.50;;;5.60;99.90;;;;;;2072483;28;20497;-72
2021/12/10 02:30:41;;;;;;;9.45;5.80;;;5.70;99.90;;;;;;2072001;28;20018;-72
2021/12/10 02:31:41;;;;;;;6.68;5.45;;;5.60;99.90;;;;;;2067074;28;20055;-72
2021/12/10 02:32:42;;;;;;;8.63;4.97;;;5.60;99.90;;;;;;2080180;28;20034;-72
2021/12/10 02:33:43;;;;;;;8.77;5.93;;;5.60;99.90;;;;;;2074565;28;20066;-72
2021/12/10 02:34:46;;;;;;;7.70;5.57;;;5.60;99.90;;;;;;2078201;28;20473;-72
2021/12/10 02:35:47;;;;;;;7.05;5.40;;;5.60;99.90;;;;;;2064002;28;20030;-71
2021/12/10 02:36:48;;;;;;;8.25;5.53;;;5.60;99.90;;;;;;2068236;28;20486;-72
2021/12/10 02:37:49;;;;;;;7.07;5.32;;;5.60;99.90;;;;;;2072184;28;20022;-72
2021/12/10 02:38:52;;;;;;;8.70;6.18;;;5.60;99.90;;;;;;2072278;28;20022;-72
2021/12/10 02:39:53;;;;;;;6.10;5.43;;;5.60;99.90;;;;;;2072156;28;20401;-72
2021/12/10 02:40:55;;;;;;;9.02;5.35;;;5.60;99.90;;;;;;2072619;28;20049;-72
2021/12/10 02:41:56;;;;;;;7.57;5.32;;;5.60;99.90;;;;;;2077350;28;20025;-72
2021/12/10 02:43:01;;;;;;;10.15;5.50;;;5.60;99.90;;;;;;2079597;28;20108;-72
2021/12/10 02:44:03;;;;;;;6.55;5.10;;;5.60;99.90;;;;;;2071941;28;20030;-72
2021/12/10 02:45:08;;;;;;;10.43;5.32;;;5.60;99.90;;;;;;2072705;28;20906;-72
2021/12/10 02:46:08;;;;;;;9.80;5.50;;;5.50;99.90;;;;;;2071673;28;20025;-72
2021/12/10 02:47:09;;;;;;;10.07;5.57;;;5.50;99.90;;;;;;2071023;28;20034;-72
2021/12/10 02:48:10;;;;;;;8.13;5.10;;;5.50;99.90;;;;;;2071309;28;20030;-72
2021/12/10 02:49:12;;;;;;;7.97;5.05;;;5.50;99.90;;;;;;2072436;28;20033;-72
2021/12/10 02:50:16;;;;;;;8.63;5.20;;;5.50;99.90;;;;;;2071906;28;20029;-72
2021/12/10 02:51:17;;;;;;;10.68;4.90;;;5.50;99.90;;;;;;2071936;28;20530;-71
2021/12/10 02:52:21;;;;;;;9.50;5.00;;;5.50;99.90;;;;;;2072211;28;20115;-72
2021/12/10 02:53:28;;;;;;;8.25;4.80;;;5.50;99.90;;;;;;2072428;28;20076;-72
2021/12/10 02:54:34;;;;;;;6.43;4.30;;;5.50;99.90;;;;;;2072267;28;20145;-72
2021/12/10 02:55:35;;;;;;;6.68;4.85;;;5.50;99.90;;;;;;2072250;28;20050;-72
2021/12/10 02:56:39;;;;;;;7.63;5.05;;;5.50;99.90;;;;;;2071861;28;20382;-72
2021/12/10 02:57:39;;;;;;;7.68;4.88;;;5.50;99.90;;;;;;2071601;28;20018;-71
2021/12/10 02:58:41;;;;;;;8.07;4.55;;;5.50;99.90;;;;;;2072332;28;20490;-71
2021/12/10 02:59:42;;;;;;;8.85;5.30;;;5.50;99.90;;;;;;2071397;28;20390;-71
2021/12/10 03:01:07;;;;;;;9.48;4.88;;;5.40;99.90;;;;;;2071543;28;20033;-71
2021/12/10 03:02:15;;;;;;;7.60;4.50;;;5.40;99.90;;;;;;2072192;28;20530;-71
2021/12/10 03:03:16;;;;;;;6.32;5.05;;;5.40;99.90;;;;;;2071704;28;20038;-71
2021/12/10 03:04:17;;;;;;;10.60;5.18;;;5.40;99.90;;;;;;2072236;28;20157;-71
2021/12/10 03:05:19;;;;;;;6.75;4.22;;;5.40;99.90;;;;;;2071782;28;20034;-71
2021/12/10 03:06:20;;;;;;;10.48;5.47;;;5.40;99.90;;;;;;2072013;28;20026;-71
2021/12/10 03:07:22;;;;;;;7.80;4.53;;;5.40;99.90;;;;;;2071382;28;20026;-71
2021/12/10 03:08:23;;;;;;;6.22;4.25;;;5.40;99.90;;;;;;2072415;28;20026;-71
2021/12/10 03:09:25;;;;;;;8.75;4.88;;;5.40;99.90;;;;;;2071721;28;20485;-71
2021/12/10 03:10:28;;;;;;;9.48;4.72;;;5.40;99.90;;;;;;2076041;28;20014;-71
2021/12/10 03:11:34;;;;;;;10.38;4.55;;;5.40;99.90;;;;;;2067692;28;20097;-71
2021/12/10 03:12:35;;;;;;;8.15;4.53;;;5.30;99.90;;;;;;2072097;28;20014;-71
2021/12/10 03:13:36;;;;;;;6.05;4.57;;;5.30;99.90;;;;;;2072032;28;20065;-71
2021/12/10 03:14:39;;;;;;;12.27;5.13;;;5.30;99.90;;;;;;2072134;28;20152;-71
2021/12/10 03:15:41;;;;;;;7.20;4.50;;;5.30;99.90;;;;;;2074412;28;20545;-71
2021/12/10 03:16:43;;;;;;;7.55;4.53;;;5.30;99.90;;;;;;2080689;28;20366;-71
2021/12/10 03:17:44;;;;;;;9.55;4.95;;;5.30;99.90;;;;;;2072157;28;20064;-71
2021/12/10 03:18:46;;;;;;;6.65;4.82;;;5.30;99.90;;;;;;2071461;28;20034;-71
2021/12/10 03:19:47;;;;;;;8.43;5.05;;;5.30;99.90;;;;;;2071963;28;20034;-71
2021/12/10 03:20:48;;;;;;;9.00;4.65;;;5.30;99.90;;;;;;2072032;28;20430;-71
2021/12/10 03:21:51;;;;;;;9.63;5.28;;;5.30;99.90;;;;;;2072081;28;20030;-71
2021/12/10 03:22:52;;;;;;;8.40;5.00;;;5.30;99.90;;;;;;2072131;28;20022;-71
2021/12/10 03:23:52;;;;;;;7.65;4.47;;;5.30;99.90;;;;;;2072163;28;20037;-71
2021/12/10 03:24:53;;;;;;;6.65;4.05;;;5.30;99.90;;;;;;2071929;28;20044;-71
2021/12/10 03:25:54;;;;;;;8.95;4.60;;;5.30;99.90;;;;;;2071488;28;20026;-71
2021/12/10 03:26:57;;;;;;;8.10;4.55;;;5.20;99.90;;;;;;2074719;28;20068;-71
2021/12/10 03:27:58;;;;;;;8.18;4.15;;;5.20;99.90;;;;;;2073489;28;20105;-71
2021/12/10 03:28:59;;;;;;;8.23;4.18;;;5.20;99.90;;;;;;2074580;28;20022;-71
2021/12/10 03:29:59;;;;;;;9.70;4.65;;;5.20;99.90;;;;;;2070889;28;20037;-71
2021/12/10 03:31:00;;;;;;;10.13;4.13;;;5.20;99.90;;;;;;2071535;28;20022;-71
2021/12/10 03:32:05;;;;;;;10.80;4.47;;;5.20;99.90;;;;;;2071603;28;20040;-71
2021/12/10 03:33:07;;;;;;;8.50;3.88;;;5.20;99.90;;;;;;2071987;28;20018;-71
2021/12/10 03:34:07;;;;;;;6.88;3.78;;;5.20;99.90;;;;;;2071686;28;20156;-71
2021/12/10 03:35:14;;;;;;;7.30;3.95;;;5.20;99.90;;;;;;2072100;28;20088;-71
2021/12/10 03:36:15;;;;;;;8.20;4.80;;;5.20;99.90;;;;;;2071697;28;20105;-71
2021/12/10 03:37:18;;;;;;;11.07;4.28;;;5.20;99.90;;;;;;2071117;28;20018;-71
2021/12/10 03:38:22;;;;;;;12.95;4.13;;;5.20;99.90;;;;;;2071560;28;20018;-71
2021/12/10 03:39:24;;;;;;;7.13;4.20;;;5.20;99.90;;;;;;2071954;28;20038;-71
2021/12/10 03:40:25;;;;;;;9.88;4.35;;;5.20;99.90;;;;;;2071855;28;20030;-71
2021/12/10 03:41:26;;;;;;;8.10;3.95;;;5.20;99.90;;;;;;2071961;28;20014;-71
2021/12/10 03:42:27;;;;;;;7.75;4.00;;;5.10;99.90;;;;;;2072094;28;20018;-71
2021/12/10 03:43:28;;;;;;;6.93;3.45;;;5.20;99.90;;;;;;2072184;28;20100;-71
2021/12/10 03:44:29;;;;;;;10.00;3.78;;;5.20;99.90;;;;;;2071779;28;20080;-71
2021/12/10 03:45:37;;;;;;;7.13;3.53;;;5.10;99.90;;;;;;2071695;28;20100;-70
2021/12/10 03:46:38;;;;;;;10.00;3.80;;;5.10;99.90;;;;;;2071594;28;20026;-70
2021/12/10 03:47:39;;;;;;;6.90;3.90;;;5.10;99.90;;;;;;2071292;28;20033;-71
2021/12/10 03:48:42;;;;;;;7.13;4.22;;;5.10;99.90;;;;;;2071541;28;20018;-70
2021/12/10 03:49:43;;;;;;;7.60;3.63;;;5.10;99.90;;;;;;2071785;28;20044;-70
2021/12/10 03:50:46;;;;;;;6.75;3.20;;;5.10;99.90;;;;;;2071290;28;20104;-70
2021/12/10 03:51:47;;;;;;;8.95;3.95;;;5.10;99.90;;;;;;2070148;28;20636;-70
2021/12/10 03:52:47;;;;;;;8.13;3.60;;;5.10;99.90;;;;;;2071810;28;20033;-70
2021/12/10 03:53:49;;;;;;;9.65;3.95;;;5.00;99.90;;;;;;2071901;28;20057;-70
2021/12/10 03:54:50;;;;;;;9.85;4.03;;;5.00;99.90;;;;;;2071689;28;20028;-70
2021/12/10 03:55:58;;;;;;;5.80;3.53;;;5.00;99.90;;;;;;2071620;28;20033;-70
2021/12/10 03:56:58;;;;;;;6.65;3.45;;;5.00;99.90;;;;;;2071195;28;20034;-70
2021/12/10 03:57:59;;;;;;;6.38;3.53;;;5.00;99.90;;;;;;2071680;28;20026;-70
2021/12/10 03:59:04;;;;;;;8.63;3.80;;;5.00;99.90;;;;;;2071505;28;20026;-70
2021/12/10 04:00:06;;;;;;;7.82;3.85;;;5.00;99.90;;;;;;2064240;28;20496;-70
2021/12/10 04:01:09;;;;;;;11.48;3.70;;;5.00;99.90;;;;;;2066511;28;20406;-70
2021/12/10 04:02:11;;;;;;;13.65;4.43;;;5.00;99.90;;;;;;2071457;28;20041;-70
2021/12/10 04:03:14;;;;;;;7.90;4.15;;;5.00;99.90;;;;;;2071398;28;20034;-70
2021/12/10 04:04:19;;;;;;;9.25;3.85;;;5.00;99.90;;;;;;2071699;28;20093;-70
2021/12/10 04:05:20;;;;;;;11.38;4.38;;;4.90;99.90;;;;;;2071811;28;20520;-70
2021/12/10 04:06:22;;;;;;;12.75;4.63;;;4.90;99.90;;;;;;2071481;28;20026;-70
2021/12/10 04:07:25;;;;;;;11.25;4.25;;;4.90;99.90;;;;;;2071063;28;20038;-70
2021/12/10 04:08:26;;;;;;;9.07;3.78;;;4.90;99.90;;;;;;2072083;28;20097;-70
2021/12/10 04:09:27;;;;;;;6.57;4.00;;;4.90;99.90;;;;;;2071657;28;20033;-70
2021/12/10 04:10:28;;;;;;;9.20;4.00;;;4.90;99.90;;;;;;2071417;28;20095;-70
2021/12/10 04:11:31;;;;;;;7.07;3.65;;;4.90;99.90;;;;;;2071725;28;20084;-70
2021/12/10 04:12:31;;;;;;;7.57;3.78;;;4.90;99.90;;;;;;2070599;28;20036;-70
2021/12/10 04:13:32;;;;;;;9.23;3.70;;;4.90;99.90;;;;;;2071026;28;20018;-70
2021/12/10 04:14:33;;;;;;;8.88;4.57;;;4.90;99.90;;;;;;2071480;28;20673;-70
2021/12/10 04:15:36;;;;;;;9.05;3.55;;;4.90;99.90;;;;;;2073387;28;20053;-70
2021/12/10 04:16:37;;;;;;;6.15;3.42;;;4.90;99.90;;;;;;2079945;28;20101;-70
2021/12/10 04:17:38;;;;;;;8.32;3.78;;;4.90;99.90;;;;;;2071979;28;20439;-70
2021/12/10 04:18:40;;;;;;;10.82;4.18;;;4.90;99.90;;;;;;2071233;28;20064;-70
2021/12/10 04:19:41;;;;;;;8.75;4.00;;;4.90;99.90;;;;;;2071865;28;20474;-70
2021/12/10 04:20:43;;;;;;;5.25;3.08;;;4.90;99.90;;;;;;2071729;28;20022;-70
2021/12/10 04:21:44;;;;;;;9.90;3.33;;;4.90;99.90;;;;;;2071908;28;20014;-70
2021/12/10 04:22:46;;;;;;;7.20;3.38;;;4.90;99.90;;;;;;2071372;28;20025;-70
2021/12/10 04:23:49;;;;;;;11.65;4.22;;;4.90;99.90;;;;;;2071826;28;20576;-70
2021/12/10 04:24:51;;;;;;;7.00;3.30;;;4.80;99.90;;;;;;2071556;28;20034;-70
2021/12/10 04:25:52;;;;;;;10.68;3.90;;;4.90;99.90;;;;;;2071573;28;20084;-70
2021/12/10 04:26:53;;;;;;;10.40;3.97;;;4.90;99.90;;;;;;2074400;28;20075;-70
2021/12/10 04:27:57;;;;;;;8.68;3.60;;;4.80;99.90;;;;;;2072316;28;20049;-70
2021/12/10 04:28:58;;;;;;;10.95;4.03;;;4.80;99.90;;;;;;2074273;28;20029;-70
2021/12/10 04:29:59;;;;;;;9.50;3.90;;;4.80;99.90;;;;;;2071510;28;20062;-70
2021/12/10 04:30:59;;;;;;;12.68;3.53;;;4.80;99.90;;;;;;2070813;28;20026;-70
2021/12/10 04:32:01;;;;;;;8.45;3.15;;;4.80;99.90;;;;;;2071019;28;20096;-70
2021/12/10 04:33:04;;;;;;;12.93;3.65;;;4.80;99.90;;;;;;2071189;28;20036;-70
2021/12/10 04:34:05;;;;;;;8.93;3.30;;;4.80;99.90;;;;;;2071458;28;20492;-70
2021/12/10 04:35:08;;;;;;;9.32;3.60;;;4.80;99.90;;;;;;2071469;28;20053;-70
2021/12/10 04:36:09;;;;;;;9.20;3.50;;;4.80;99.90;;;;;;2071637;28;20052;-70
2021/12/10 04:37:11;;;;;;;8.82;3.45;;;4.80;99.90;;;;;;2070756;28;20026;-70
2021/12/10 04:38:13;;;;;;;9.43;3.80;;;4.80;99.90;;;;;;2071539;28;20030;-70
2021/12/10 04:39:14;;;;;;;7.03;3.15;;;4.80;99.90;;;;;;2071548;28;20030;-70
2021/12/10 04:40:17;;;;;;;10.00;3.67;;;4.80;99.90;;;;;;2071400;28;20041;-70
2021/12/10 04:41:18;;;;;;;10.63;3.75;;;4.80;99.90;;;;;;2071506;28;20393;-70
2021/12/10 04:42:23;;;;;;;8.63;3.53;;;4.80;99.90;;;;;;2071606;28;20058;-70
2021/12/10 04:43:24;;;;;;;10.40;3.33;;;4.80;99.90;;;;;;2071327;28;20038;-70
2021/12/10 04:44:24;;;;;;;7.47;3.78;;;4.80;99.90;;;;;;2071890;28;20056;-70
2021/12/10 04:45:25;;;;;;;8.98;4.10;;;4.80;99.90;;;;;;2070939;28;20045;-70
2021/12/10 04:46:26;;;;;;;12.63;4.10;;;4.80;99.90;;;;;;2071552;28;20427;-70
2021/12/10 04:47:28;;;;;;;10.68;3.90;;;4.80;99.90;;;;;;2070670;28;20026;-70
2021/12/10 04:48:41;;;;;;;11.73;2.85;;;4.80;99.90;;;;;;2071191;28;20022;-70
2021/12/10 04:49:41;;;;;;;7.65;3.30;;;4.80;99.90;;;;;;2071118;28;20026;-70
2021/12/10 04:50:42;;;;;;;12.73;3.53;;;4.80;99.90;;;;;;2071447;28;20022;-70
2021/12/10 04:51:51;;;;;;;9.88;3.50;;;4.80;99.90;;;;;;2071281;28;20784;-70
2021/12/10 04:52:52;;;;;;;9.80;3.30;;;4.80;99.90;;;;;;2071377;28;20264;-70
2021/12/10 04:53:54;;;;;;;8.43;2.92;;;4.80;99.90;;;;;;2071230;28;20086;-70
2021/12/10 04:54:55;;;;;;;9.77;3.60;;;4.80;99.90;;;;;;2073223;28;20072;-70
2021/12/10 04:55:56;;;;;;;9.30;3.22;;;4.80;99.90;;;;;;2074075;28;20029;-70
2021/12/10 04:56:58;;;;;;;7.18;3.10;;;4.80;99.90;;;;;;2074114;28;20028;-70
2021/12/10 04:57:59;;;;;;;11.98;3.15;;;4.80;99.90;;;;;;2074148;28;20068;-70
2021/12/10 04:59:02;;;;;;;8.68;3.22;;;4.80;99.90;;;;;;2074177;28;20101;-70
2021/12/10 05:00:10;;;;;;;9.02;3.05;;;4.80;99.90;;;;;;2074083;28;20030;-70
2021/12/10 05:01:11;;;;;;;9.98;2.60;;;4.80;99.90;;;;;;2074304;28;20026;-70
2021/12/10 05:02:16;;;;;;;9.18;2.78;;;4.80;99.90;;;;;;2074069;28;20025;-70
2021/12/10 05:03:17;;;;;;;10.18;3.08;;;4.80;99.90;;;;;;2073626;28;20034;-70
2021/12/10 05:04:18;;;;;;;9.18;2.80;;;4.80;99.90;;;;;;2081216;28;20052;-70
2021/12/10 05:05:19;;;;;;;8.55;3.42;;;4.80;99.90;;;;;;2081918;28;20061;-70
2021/12/10 05:06:20;;;;;;;6.40;3.22;;;4.80;99.90;;;;;;2073670;28;20025;-70
2021/12/10 05:07:21;;;;;;;9.25;2.72;;;4.80;99.90;;;;;;2073500;28;20041;-70
2021/12/10 05:08:21;;;;;;;12.55;3.10;;;4.80;99.90;;;;;;2073988;28;20024;-70
2021/12/10 05:09:22;;;;;;;10.63;3.50;;;4.80;99.90;;;;;;2074279;28;20080;-70
2021/12/10 05:10:23;;;;;;;6.40;3.10;;;4.80;99.90;;;;;;2078180;28;20041;-70
2021/12/10 05:11:24;;;;;;;8.43;2.78;;;4.80;99.90;;;;;;2073919;28;20093;-70
2021/12/10 05:12:24;;;;;;;7.90;2.75;;;4.80;99.90;;;;;;2073971;28;20026;-70
2021/12/10 05:13:26;;;;;;;6.65;2.55;;;4.80;99.90;;;;;;2074531;28;20033;-70
2021/12/10 05:14:28;;;;;;;8.32;2.72;;;4.80;99.90;;;;;;2073902;28;20022;-70
2021/12/10 05:15:32;;;;;;;9.85;3.10;;;4.80;99.90;;;;;;2074683;28;20061;-70
2021/12/10 05:16:37;;;;;;;8.85;3.30;;;4.80;99.90;;;;;;2082004;28;20036;-70
2021/12/10 05:17:40;;;;;;;6.20;2.38;;;4.80;99.90;;;;;;2076519;28;20544;-70
2021/12/10 05:18:44;;;;;;;7.65;2.35;;;4.80;99.90;;;;;;2074110;28;21030;-70
2021/12/10 05:19:46;;;;;;;9.13;2.63;;;4.80;99.90;;;;;;2074193;28;20493;-70
2021/12/10 05:20:49;;;;;;;8.13;2.50;;;4.80;99.90;;;;;;2073994;28;20408;-70
2021/12/10 05:21:51;;;;;;;7.78;2.58;;;4.80;99.90;;;;;;2073907;28;20052;-70
2021/12/10 05:22:51;;;;;;;9.48;2.50;;;4.80;99.90;;;;;;2073986;28;20022;-70
2021/12/10 05:23:52;;;;;;;11.40;3.00;;;4.80;99.90;;;;;;2070788;28;20066;-70
2021/12/10 05:24:53;;;;;;;7.57;2.17;;;4.80;99.90;;;;;;2069876;28;20021;-70
2021/12/10 05:25:54;;;;;;;6.97;2.72;;;4.80;99.90;;;;;;2066752;28;20041;-70
2021/12/10 05:26:56;;;;;;;10.27;3.10;;;4.80;99.90;;;;;;2075620;28;20021;-70
2021/12/10 05:27:58;;;;;;;12.85;3.13;;;4.80;99.90;;;;;;2074902;28;20040;-70
2021/12/10 05:28:59;;;;;;;9.05;2.40;;;4.80;99.90;;;;;;2072093;28;20045;-70
2021/12/10 05:30:00;;;;;;;7.70;2.35;;;4.80;99.90;;;;;;2073724;28;20117;-70
2021/12/10 05:31:00;;;;;;;10.20;2.80;;;4.80;99.90;;;;;;2073898;28;20084;-70
2021/12/10 05:32:03;;;;;;;9.77;2.75;;;4.80;99.90;;;;;;2073995;28;20160;-70
2021/12/10 05:33:04;;;;;;;14.18;3.08;;;4.80;99.90;;;;;;2073793;28;20437;-70
2021/12/10 05:34:05;;;;;;;11.18;2.65;;;4.80;99.90;;;;;;2073891;28;20022;-70
2021/12/10 05:35:07;;;;;;;9.82;2.42;;;4.80;99.90;;;;;;2073618;28;20117;-70
2021/12/10 05:36:08;;;;;;;5.95;2.50;;;4.80;99.90;;;;;;2073643;28;20080;-70
2021/12/10 05:37:10;;;;;;;6.72;2.58;;;4.80;99.90;;;;;;2072384;28;20053;-70
2021/12/10 05:38:10;;;;;;;9.07;2.97;;;4.80;99.90;;;;;;2070991;28;20920;-70
2021/12/10 05:39:12;;;;;;;7.95;3.30;;;4.80;99.90;;;;;;2067429;28;20033;-70
2021/12/10 05:40:14;;;;;;;8.55;2.75;;;4.80;99.90;;;;;;2066654;28;20125;-70
2021/12/10 05:41:15;;;;;;;10.00;3.13;;;4.80;99.90;;;;;;2071716;28;20084;-70